Tunis, Tunisia
Current Conditions -  °F | °C
As of 12:30 AM on Saturday 25 Oct 2014 (Local Time) from DTTA Reporting Station
Few Clouds Few Clouds  
Wind Chill: 66°   Ceiling: Unl
Heat Index: 66°   Visibility: 6mi
Dew Point: 55°   Wind: 6mph
Humidity: 68%   Direction: 240°WSW
Pressure: 30.03"   Gusts: NA
Location:  36.84°N, 10.22°E
Report Text: DTTA 242330Z 24005KT 9999 FEW026TCU 19/13 Q1017 NOSIG
Loading
Personal Weather Stations






























Interactive Weather Map New forecast layout! Learn more

10-Day Weather Forecast

Advertisements
Track Severe Weather on mobile